Time;durP1;ratioP1;P1;durP2;ratioP2;P2;SDS_P1;SDS_P2;PMS_P1;PMS_P2;Temp;Humidity;BMP_temperature;BMP_pressure;BME280_temperature;BME280_humidity;BME280_pressure;Samples;Min_cycle;Max_cycle;Signal;HPM_P1;HPM_P2
2022/11/26 00:00:24;;;;;;;0.30;0.30;;;4.90;99.90;;;;;;4956021;28;20185;-68
2022/11/26 00:02:50;;;;;;;1.60;0.82;;;4.90;99.90;;;;;;4956047;28;20945;-68
2022/11/26 00:05:16;;;;;;;0.40;0.40;;;4.80;99.90;;;;;;4956315;28;20192;-67
2022/11/26 00:07:53;;;;;;;2.38;2.17;;;4.80;99.90;;;;;;4955967;28;20512;-67
2022/11/26 00:10:22;;;;;;;0.38;0.38;;;4.70;99.90;;;;;;4956017;28;20641;-68
2022/11/26 00:12:48;;;;;;;0.60;0.60;;;4.80;99.90;;;;;;4956151;28;20184;-66
2022/11/26 00:15:16;;;;;;;1.23;1.13;;;4.80;99.90;;;;;;4955909;28;20178;-68
2022/11/26 00:17:42;;;;;;;0.40;0.40;;;4.90;99.90;;;;;;4955679;28;20626;-68
2022/11/26 00:20:08;;;;;;;0.40;0.40;;;4.90;99.90;;;;;;4955772;28;20181;-68
2022/11/26 00:22:57;;;;;;;0.40;0.40;;;4.90;99.90;;;;;;4955870;28;20209;-68
2022/11/26 00:25:26;;;;;;;0.40;0.40;;;5.00;99.90;;;;;;4955754;28;20397;-67
2022/11/26 00:27:54;;;;;;;0.40;0.40;;;4.90;99.90;;;;;;4955952;28;20178;-68
2022/11/26 00:30:24;;;;;;;0.45;0.45;;;4.90;99.90;;;;;;4954271;29;20173;-67
2022/11/26 00:32:50;;;;;;;0.40;0.40;;;4.90;99.90;;;;;;4955750;28;20655;-67
2022/11/26 00:35:16;;;;;;;0.30;0.30;;;4.70;99.90;;;;;;4955837;28;20236;-67
2022/11/26 00:37:47;;;;;;;0.40;0.40;;;4.80;99.90;;;;;;4955511;28;20618;-68
2022/11/26 00:40:25;;;;;;;1.15;1.13;;;4.80;99.90;;;;;;4955542;28;20524;-67
2022/11/26 00:42:52;;;;;;;0.75;0.75;;;4.70;99.90;;;;;;4955589;28;20244;-68
2022/11/26 00:45:22;;;;;;;0.93;0.88;;;4.70;99.90;;;;;;4955605;28;20174;-68
2022/11/26 00:47:49;;;;;;;0.45;0.45;;;4.60;99.90;;;;;;4955604;28;20297;-68
2022/11/26 00:50:17;;;;;;;0.50;0.50;;;4.70;99.90;;;;;;4955253;28;20268;-68
2022/11/26 00:52:44;;;;;;;0.77;0.77;;;4.70;99.90;;;;;;4955725;28;20193;-68
2022/11/26 00:55:35;;;;;;;0.40;0.40;;;4.60;99.90;;;;;;4955425;28;20177;-68
2022/11/26 00:58:01;;;;;;;0.35;0.35;;;4.50;99.90;;;;;;4955778;28;20190;-68
2022/11/26 01:00:30;;;;;;;0.40;0.40;;;4.40;99.90;;;;;;4961769;28;20181;-67
2022/11/26 01:02:56;;;;;;;0.40;0.40;;;4.30;99.90;;;;;;4961759;28;20243;-67
2022/11/26 01:05:24;;;;;;;0.40;0.40;;;4.20;99.90;;;;;;4961690;28;20202;-67
2022/11/26 01:07:51;;;;;;;0.40;0.40;;;4.10;99.90;;;;;;4961684;28;20169;-67
2022/11/26 01:10:23;;;;;;;0.30;0.30;;;4.20;99.90;;;;;;4961535;28;20177;-67
2022/11/26 01:12:51;;;;;;;2.88;1.52;;;4.20;99.90;;;;;;4961809;28;20564;-67
2022/11/26 01:15:18;;;;;;;0.52;0.52;;;4.10;99.90;;;;;;4961794;28;20541;-68
2022/11/26 01:17:44;;;;;;;0.40;0.40;;;4.20;99.90;;;;;;4961422;28;20216;-67
2022/11/26 01:20:22;;;;;;;0.50;0.50;;;4.30;99.90;;;;;;4961453;28;20186;-68
2022/11/26 01:22:50;;;;;;;0.68;0.68;;;4.40;99.90;;;;;;4961628;28;20918;-67
2022/11/26 01:25:16;;;;;;;0.30;0.30;;;4.40;99.90;;;;;;4961654;28;20180;-67
2022/11/26 01:27:42;;;;;;;0.30;0.30;;;4.40;99.90;;;;;;4961369;28;20244;-67
2022/11/26 01:30:22;;;;;;;2.75;2.65;;;4.40;99.90;;;;;;4961524;28;20174;-68
2022/11/26 01:32:49;;;;;;;0.32;0.32;;;4.30;99.90;;;;;;4961547;28;20208;-66
2022/11/26 01:35:16;;;;;;;0.50;0.50;;;4.30;99.90;;;;;;4961530;28;20196;-68
2022/11/26 01:37:42;;;;;;;0.40;0.40;;;4.20;99.90;;;;;;4961387;28;20538;-66
2022/11/26 01:40:25;;;;;;;0.40;0.40;;;4.00;99.90;;;;;;4961324;28;20268;-68
2022/11/26 01:43:02;;;;;;;0.40;0.40;;;3.90;99.90;;;;;;4961274;28;20280;-66
2022/11/26 01:45:28;;;;;;;0.40;0.40;;;4.00;99.90;;;;;;4961574;28;20169;-68
2022/11/26 01:47:53;;;;;;;3.43;3.17;;;3.90;99.90;;;;;;4961445;28;20595;-66
2022/11/26 01:50:31;;;;;;;0.40;0.40;;;4.10;99.90;;;;;;4961369;28;20652;-67
2022/11/26 01:53:12;;;;;;;0.40;0.40;;;4.10;99.90;;;;;;4961464;28;20173;-68
2022/11/26 01:55:46;;;;;;;0.40;0.40;;;4.10;99.90;;;;;;4961476;28;20251;-67
2022/11/26 01:58:16;;;;;;;6.45;1.77;;;4.10;99.90;;;;;;4960596;29;20188;-67
2022/11/26 02:00:42;;;;;;;0.60;0.60;;;4.20;99.90;;;;;;4961095;28;20285;-67
2022/11/26 02:03:08;;;;;;;0.80;0.80;;;4.10;99.90;;;;;;4961277;28;20306;-68
2022/11/26 02:05:41;;;;;;;0.30;0.30;;;4.10;99.90;;;;;;4961087;28;20174;-68
2022/11/26 02:08:09;;;;;;;0.40;0.40;;;4.20;99.90;;;;;;4961220;28;20526;-66
2022/11/26 02:10:35;;;;;;;0.60;0.60;;;4.20;99.90;;;;;;4956714;28;20178;-67
2022/11/26 02:13:01;;;;;;;0.70;0.70;;;4.20;99.90;;;;;;4956984;29;20184;-68
2022/11/26 02:15:33;;;;;;;0.40;0.40;;;4.30;99.90;;;;;;4957970;28;20455;-67
2022/11/26 02:18:06;;;;;;;0.40;0.40;;;4.40;99.90;;;;;;4958047;28;20638;-67
2022/11/26 02:20:46;;;;;;;0.30;0.30;;;4.50;99.90;;;;;;4957867;28;20654;-67
2022/11/26 02:23:37;;;;;;;0.40;0.40;;;4.50;99.90;;;;;;4958110;28;20205;-68
2022/11/26 02:27:05;;;;;;;1.02;0.50;;;4.60;99.90;;;;;;4928075;28;20201;-68
2022/11/26 02:30:03;;;;;;;0.50;0.50;;;4.70;99.90;;;;;;4891134;29;20659;-67
2022/11/26 02:32:53;;;;;;;0.30;0.30;;;4.70;99.90;;;;;;4898935;29;20187;-67
2022/11/26 02:35:32;;;;;;;0.40;0.40;;;4.70;99.90;;;;;;4957984;28;20252;-67
2022/11/26 02:38:09;;;;;;;0.40;0.40;;;4.80;99.90;;;;;;4957812;28;20204;-68
2022/11/26 02:40:34;;;;;;;0.40;0.40;;;4.80;99.90;;;;;;4957723;28;20180;-68
2022/11/26 02:43:00;;;;;;;0.37;0.37;;;4.80;99.90;;;;;;4957677;28;20209;-67
2022/11/26 02:45:32;;;;;;;2.20;2.10;;;4.80;99.90;;;;;;4957512;28;20173;-67
2022/11/26 02:48:00;;;;;;;0.70;0.70;;;4.80;99.90;;;;;;4957729;28;20225;-67
2022/11/26 02:50:28;;;;;;;6.35;1.58;;;4.80;99.90;;;;;;4957460;28;20170;-68
2022/11/26 02:52:55;;;;;;;0.40;0.40;;;4.80;99.90;;;;;;4957573;28;20182;-68
2022/11/26 02:55:29;;;;;;;0.30;0.30;;;4.80;99.90;;;;;;4957500;28;20229;-67
2022/11/26 02:57:55;;;;;;;0.40;0.40;;;4.80;99.90;;;;;;4957572;28;20531;-68
2022/11/26 03:00:21;;;;;;;0.30;0.30;;;4.70;99.90;;;;;;4957246;28;20585;-67
2022/11/26 03:02:53;;;;;;;0.60;0.60;;;4.70;99.90;;;;;;4957245;28;20194;-66
2022/11/26 03:05:19;;;;;;;1.10;1.10;;;4.70;99.90;;;;;;4956119;29;20513;-67
2022/11/26 03:07:48;;;;;;;0.32;0.32;;;4.60;99.90;;;;;;4957035;28;20272;-68
2022/11/26 03:10:14;;;;;;;0.40;0.40;;;4.50;99.90;;;;;;4956992;28;20178;-68
2022/11/26 03:12:40;;;;;;;3.23;0.70;;;4.50;99.90;;;;;;4957332;28;20174;-68
2022/11/26 03:15:06;;;;;;;0.40;0.40;;;4.40;99.90;;;;;;4957075;28;20405;-67
2022/11/26 03:17:32;;;;;;;0.40;0.40;;;4.30;99.90;;;;;;4956763;28;20466;-67
2022/11/26 03:19:58;;;;;;;0.30;0.30;;;4.30;99.90;;;;;;4956786;28;20186;-68
2022/11/26 03:22:24;;;;;;;3.60;0.80;;;4.20;99.90;;;;;;4956603;28;20202;-68
2022/11/26 03:24:50;;;;;;;0.30;0.30;;;4.10;99.90;;;;;;4956709;28;20409;-67
2022/11/26 03:27:15;;;;;;;0.50;0.50;;;4.00;99.90;;;;;;4956724;28;20264;-67
2022/11/26 03:29:41;;;;;;;0.70;0.70;;;4.00;99.90;;;;;;4956820;28;20261;-66
2022/11/26 03:32:06;;;;;;;0.83;0.60;;;4.00;99.90;;;;;;4956939;28;20173;-66
2022/11/26 03:34:32;;;;;;;0.30;0.30;;;4.10;99.90;;;;;;4956926;28;20236;-66
2022/11/26 03:36:58;;;;;;;0.40;0.40;;;4.10;99.90;;;;;;4956592;28;20193;-68
2022/11/26 03:39:23;;;;;;;0.40;0.40;;;4.20;99.90;;;;;;4956464;28;20526;-67
2022/11/26 03:41:49;;;;;;;0.60;0.60;;;4.10;99.90;;;;;;4956480;28;20261;-67
2022/11/26 03:44:15;;;;;;;0.40;0.40;;;4.10;99.90;;;;;;4956694;28;20624;-67
2022/11/26 03:46:41;;;;;;;0.60;0.50;;;4.10;99.90;;;;;;4956566;28;20200;-67
2022/11/26 03:49:06;;;;;;;0.40;0.40;;;4.10;99.90;;;;;;4956298;28;20174;-68
2022/11/26 03:51:32;;;;;;;0.40;0.40;;;4.10;99.90;;;;;;4956488;28;20185;-68
2022/11/26 03:53:58;;;;;;;0.40;0.40;;;4.00;99.90;;;;;;4956324;28;20417;-67
2022/11/26 03:56:23;;;;;;;0.40;0.40;;;3.90;99.90;;;;;;4956178;28;20251;-67
2022/11/26 03:58:49;;;;;;;0.40;0.40;;;3.90;99.90;;;;;;4956134;28;20177;-67
2022/11/26 04:01:15;;;;;;;1.13;0.90;;;3.90;99.90;;;;;;4956302;28;20169;-68
2022/11/26 04:03:41;;;;;;;0.53;0.53;;;3.90;99.90;;;;;;4956267;28;20293;-66
2022/11/26 04:06:07;;;;;;;0.30;0.30;;;3.90;99.90;;;;;;4956225;28;20196;-67
2022/11/26 04:08:32;;;;;;;0.40;0.40;;;4.00;99.90;;;;;;4954620;29;20632;-67
2022/11/26 04:10:58;;;;;;;0.60;0.60;;;3.90;99.90;;;;;;4956031;28;20485;-67
2022/11/26 04:13:24;;;;;;;0.40;0.40;;;3.90;99.90;;;;;;4956074;28;20178;-67
2022/11/26 04:15:49;;;;;;;0.30;0.30;;;3.80;99.90;;;;;;4955762;28;20659;-67
2022/11/26 04:18:16;;;;;;;0.40;0.40;;;3.70;99.90;;;;;;4956060;29;20166;-67
2022/11/26 04:20:41;;;;;;;0.40;0.40;;;3.60;99.90;;;;;;4955727;28;20542;-66
2022/11/26 04:23:07;;;;;;;0.37;0.37;;;3.70;99.90;;;;;;4955746;28;20268;-68
2022/11/26 04:25:33;;;;;;;0.50;0.50;;;3.70;99.90;;;;;;4955767;28;20247;-68
2022/11/26 04:27:59;;;;;;;0.40;0.40;;;3.70;99.90;;;;;;4955899;28;20201;-67
2022/11/26 04:30:24;;;;;;;0.30;0.30;;;3.60;99.90;;;;;;4955720;28;20188;-67
2022/11/26 04:32:50;;;;;;;0.30;0.30;;;3.50;99.90;;;;;;4955150;28;20206;-67
2022/11/26 04:35:16;;;;;;;0.70;0.70;;;3.40;99.90;;;;;;4955631;28;20181;-66
2022/11/26 04:37:41;;;;;;;0.50;0.50;;;3.40;99.90;;;;;;4955775;28;20452;-66
2022/11/26 04:40:08;;;;;;;0.50;0.50;;;3.50;99.90;;;;;;4955450;28;20179;-66
2022/11/26 04:42:33;;;;;;;0.50;0.50;;;3.60;99.90;;;;;;4955529;28;20201;-67
2022/11/26 04:44:59;;;;;;;0.40;0.40;;;3.70;99.90;;;;;;4955570;28;20178;-66
2022/11/26 04:47:25;;;;;;;0.87;0.87;;;3.70;99.90;;;;;;4955425;28;20279;-68
2022/11/26 04:49:50;;;;;;;1.00;0.70;;;3.60;99.90;;;;;;4955417;28;20248;-67
2022/11/26 04:52:16;;;;;;;0.60;0.60;;;3.60;99.90;;;;;;4955339;28;20173;-67
2022/11/26 04:54:42;;;;;;;0.50;0.50;;;3.50;99.90;;;;;;4955660;28;20177;-67
2022/11/26 04:57:07;;;;;;;0.50;0.50;;;3.40;99.90;;;;;;4955313;28;20957;-67
2022/11/26 04:59:33;;;;;;;0.30;0.30;;;3.40;99.90;;;;;;4955391;28;20177;-68
2022/11/26 05:01:59;;;;;;;0.30;0.30;;;3.30;99.90;;;;;;4955460;28;20186;-67
2022/11/26 05:04:28;;;;;;;0.40;0.40;;;3.30;99.90;;;;;;4955272;28;20180;-68
2022/11/26 05:06:54;;;;;;;0.40;0.40;;;3.40;99.90;;;;;;4955311;28;20193;-66
2022/11/26 05:09:20;;;;;;;0.30;0.30;;;3.40;99.90;;;;;;4955243;28;20185;-66
2022/11/26 05:11:46;;;;;;;0.30;0.30;;;3.30;99.90;;;;;;4955346;28;20791;-67
2022/11/26 05:14:12;;;;;;;0.37;0.37;;;3.30;99.90;;;;;;4955538;28;20208;-67
2022/11/26 05:16:37;;;;;;;0.30;0.30;;;3.30;99.90;;;;;;4955056;28;20215;-68
2022/11/26 05:19:03;;;;;;;0.47;0.47;;;3.30;99.90;;;;;;4955196;28;20173;-67
2022/11/26 05:21:29;;;;;;;0.40;0.40;;;3.30;99.90;;;;;;4955011;28;20180;-68
2022/11/26 05:23:54;;;;;;;0.40;0.40;;;3.30;99.90;;;;;;4955116;28;20204;-67
2022/11/26 05:26:20;;;;;;;0.60;0.60;;;3.30;99.90;;;;;;4955191;28;20197;-67
2022/11/26 05:28:47;;;;;;;9.05;1.50;;;3.30;99.90;;;;;;4955141;29;20231;-67
2022/11/26 05:31:12;;;;;;;1.63;1.53;;;3.30;99.90;;;;;;4955273;28;20170;-68
2022/11/26 05:33:38;;;;;;;0.30;0.30;;;3.30;99.90;;;;;;4955274;28;20174;-67
2022/11/26 05:36:04;;;;;;;0.30;0.30;;;3.20;99.90;;;;;;4955010;28;20296;-67
2022/11/26 05:38:29;;;;;;;0.30;0.30;;;3.10;99.90;;;;;;4955065;28;20180;-67
2022/11/26 05:40:55;;;;;;;0.50;0.50;;;3.10;99.90;;;;;;4955007;28;20257;-67
2022/11/26 05:43:21;;;;;;;0.30;0.30;;;3.00;99.90;;;;;;4954936;28;20781;-67
2022/11/26 05:45:47;;;;;;;0.40;0.40;;;3.00;99.90;;;;;;4957773;28;20186;-67
2022/11/26 05:48:13;;;;;;;0.40;0.40;;;3.00;99.90;;;;;;4958125;28;20607;-68
2022/11/26 05:50:39;;;;;;;0.40;0.40;;;3.00;99.90;;;;;;4958516;28;20689;-69
2022/11/26 05:53:04;;;;;;;0.30;0.30;;;3.10;99.90;;;;;;4958840;28;20412;-70
2022/11/26 05:55:30;;;;;;;0.30;0.30;;;3.20;99.90;;;;;;4958814;28;20540;-70
2022/11/26 05:57:55;;;;;;;0.30;0.30;;;3.30;99.90;;;;;;4958953;28;20614;-70
2022/11/26 06:00:21;;;;;;;0.60;0.60;;;3.20;99.90;;;;;;4958443;28;20747;-69
2022/11/26 06:02:47;;;;;;;0.33;0.33;;;3.20;99.90;;;;;;4958615;28;20228;-67
2022/11/26 06:05:13;;;;;;;0.80;0.70;;;3.20;99.90;;;;;;4958377;28;20540;-68
2022/11/26 06:07:39;;;;;;;0.77;0.77;;;3.10;99.90;;;;;;4958478;28;20688;-67
2022/11/26 06:10:06;;;;;;;0.30;0.30;;;3.10;99.90;;;;;;4958506;28;20185;-66
2022/11/26 06:12:31;;;;;;;0.65;0.65;;;3.00;99.90;;;;;;4958388;28;20413;-66
2022/11/26 06:14:57;;;;;;;1.00;1.00;;;2.90;99.90;;;;;;4958077;28;20177;-65
2022/11/26 06:17:23;;;;;;;0.30;0.30;;;2.90;99.90;;;;;;4957483;28;20205;-66
2022/11/26 06:19:48;;;;;;;0.40;0.40;;;2.90;99.90;;;;;;4957952;28;20639;-66
2022/11/26 06:22:14;;;;;;;0.30;0.30;;;3.00;99.90;;;;;;4957970;28;20232;-66
2022/11/26 06:24:39;;;;;;;2.90;1.03;;;3.10;99.90;;;;;;4957990;28;20165;-66
2022/11/26 06:27:05;;;;;;;0.73;0.73;;;3.10;99.90;;;;;;4957843;28;20190;-66
2022/11/26 06:29:31;;;;;;;1.13;1.07;;;3.10;99.90;;;;;;4957915;28;20643;-66
2022/11/26 06:31:56;;;;;;;0.30;0.30;;;3.10;99.90;;;;;;4957801;28;20520;-65
2022/11/26 06:34:22;;;;;;;0.30;0.30;;;3.10;99.90;;;;;;4957726;28;20612;-66
2022/11/26 06:36:48;;;;;;;0.40;0.40;;;3.20;99.90;;;;;;4957698;28;20583;-67
2022/11/26 06:39:14;;;;;;;0.40;0.40;;;3.30;99.90;;;;;;4957661;28;20941;-66
2022/11/26 06:41:39;;;;;;;0.47;0.47;;;3.30;99.90;;;;;;4957788;28;20239;-66
2022/11/26 06:44:05;;;;;;;0.40;0.40;;;3.40;99.90;;;;;;4957488;28;20643;-66
2022/11/26 06:46:33;;;;;;;1.93;1.80;;;3.40;99.90;;;;;;4957558;28;20189;-66
2022/11/26 06:49:03;;;;;;;0.40;0.40;;;3.40;99.90;;;;;;4957315;28;20181;-66
2022/11/26 06:51:29;;;;;;;0.60;0.60;;;3.50;99.90;;;;;;4957536;28;20184;-66
2022/11/26 06:53:54;;;;;;;0.95;0.95;;;3.50;99.90;;;;;;4957646;28;20173;-66
2022/11/26 06:56:20;;;;;;;0.30;0.30;;;3.50;99.90;;;;;;4956795;28;20675;-67
2022/11/26 06:58:47;;;;;;;0.77;0.77;;;3.50;99.90;;;;;;4957254;28;20174;-65
2022/11/26 07:01:18;;;;;;;0.30;0.30;;;3.60;99.90;;;;;;4957376;28;20255;-66
2022/11/26 07:03:43;;;;;;;0.55;0.55;;;3.50;99.90;;;;;;4957335;28;20206;-66
2022/11/26 07:06:26;;;;;;;3.70;2.00;;;3.50;99.90;;;;;;4957101;28;20284;-66
2022/11/26 07:08:54;;;;;;;0.65;0.65;;;3.50;99.90;;;;;;4957242;28;20531;-66
2022/11/26 07:11:20;;;;;;;0.70;0.70;;;3.40;99.90;;;;;;4957214;28;20177;-66
2022/11/26 07:13:46;;;;;;;0.50;0.50;;;3.40;99.90;;;;;;4957268;28;20170;-66
2022/11/26 07:16:12;;;;;;;1.57;1.57;;;3.50;99.90;;;;;;4957046;28;20220;-66
2022/11/26 07:18:40;;;;;;;1.90;1.80;;;3.50;99.90;;;;;;4957074;28;20509;-66
2022/11/26 07:21:11;;;;;;;0.40;0.40;;;3.60;99.90;;;;;;4955810;29;20420;-66
2022/11/26 07:23:37;;;;;;;0.30;0.30;;;3.50;99.90;;;;;;4956999;28;20205;-66
2022/11/26 07:26:04;;;;;;;1.02;1.02;;;3.50;99.90;;;;;;4956917;28;20318;-66
2022/11/26 07:28:30;;;;;;;0.50;0.50;;;3.40;99.90;;;;;;4956769;28;20643;-66
2022/11/26 07:31:03;;;;;;;0.53;0.53;;;3.50;99.90;;;;;;4956740;28;20224;-67
2022/11/26 07:33:29;;;;;;;0.75;0.70;;;3.50;99.90;;;;;;4956843;28;20233;-67
2022/11/26 07:35:59;;;;;;;0.30;0.30;;;3.50;99.90;;;;;;4956555;28;20197;-66
2022/11/26 07:38:26;;;;;;;1.95;1.35;;;3.60;99.90;;;;;;4956605;28;20173;-66
2022/11/26 07:40:51;;;;;;;1.35;1.23;;;3.60;99.90;;;;;;4956048;28;20177;-66
2022/11/26 07:43:17;;;;;;;0.83;0.80;;;3.70;99.90;;;;;;4954726;29;20216;-67
2022/11/26 07:45:43;;;;;;;2.37;2.20;;;3.80;99.90;;;;;;4954233;28;20228;-67
2022/11/26 07:48:08;;;;;;;2.30;2.20;;;3.90;99.90;;;;;;4955899;28;20180;-67
2022/11/26 07:50:34;;;;;;;0.40;0.40;;;3.80;99.90;;;;;;4956414;28;20185;-67
2022/11/26 07:53:00;;;;;;;1.53;1.30;;;3.90;99.90;;;;;;4955737;28;20182;-67
2022/11/26 07:55:25;;;;;;;0.60;0.60;;;3.90;99.90;;;;;;4956380;28;20631;-67
2022/11/26 07:57:51;;;;;;;1.37;0.90;;;4.00;99.90;;;;;;4956267;28;20261;-67
2022/11/26 08:00:17;;;;;;;0.40;0.40;;;4.00;99.90;;;;;;4956274;28;20179;-67
2022/11/26 08:02:43;;;;;;;0.57;0.57;;;4.10;99.90;;;;;;4956186;28;20202;-67
2022/11/26 08:05:08;;;;;;;0.83;0.83;;;4.30;99.90;;;;;;4956257;28;20257;-67
2022/11/26 08:07:35;;;;;;;0.30;0.30;;;4.60;99.90;;;;;;4955459;28;20209;-67
2022/11/26 08:10:02;;;;;;;0.40;0.40;;;5.20;99.90;;;;;;4955601;28;20214;-66
2022/11/26 08:12:28;;;;;;;0.40;0.40;;;6.10;99.90;;;;;;4956234;28;20181;-67
2022/11/26 08:14:53;;;;;;;0.57;0.53;;;6.90;99.90;;;;;;4956107;28;20236;-66
2022/11/26 08:17:19;;;;;;;5.00;2.97;;;7.70;99.90;;;;;;4955795;28;20212;-66
2022/11/26 08:19:45;;;;;;;3.10;2.80;;;8.50;99.90;;;;;;4955825;28;20173;-67
2022/11/26 08:22:10;;;;;;;3.10;3.00;;;9.20;98.70;;;;;;4956052;28;20193;-68
2022/11/26 08:24:36;;;;;;;4.90;4.47;;;9.90;96.80;;;;;;4955958;28;20165;-67
2022/11/26 08:27:01;;;;;;;1.70;1.03;;;10.40;93.40;;;;;;4955735;28;20189;-66
2022/11/26 08:29:27;;;;;;;4.00;3.70;;;10.90;92.50;;;;;;4955692;28;20655;-68
2022/11/26 08:31:53;;;;;;;4.97;4.33;;;11.10;91.70;;;;;;4955797;28;20193;-68
2022/11/26 08:34:18;;;;;;;3.30;2.70;;;11.20;91.80;;;;;;4955820;28;20248;-68
2022/11/26 08:36:45;;;;;;;1.00;1.00;;;11.30;91.30;;;;;;4955656;28;20229;-66
2022/11/26 08:39:16;;;;;;;2.47;1.63;;;11.40;90.70;;;;;;4955431;28;20718;-67
2022/11/26 08:41:42;;;;;;;2.20;2.10;;;11.70;89.60;;;;;;4955895;28;20492;-68
2022/11/26 08:44:08;;;;;;;1.37;0.60;;;11.90;90.10;;;;;;4955527;29;20460;-67
2022/11/26 08:46:38;;;;;;;2.90;2.10;;;12.50;88.30;;;;;;4955547;28;20437;-67
2022/11/26 08:49:05;;;;;;;2.33;2.17;;;13.30;86.20;;;;;;4955556;28;20162;-67
2022/11/26 08:51:30;;;;;;;0.70;0.57;;;14.30;84.00;;;;;;4955620;28;20453;-68
2022/11/26 08:53:56;;;;;;;0.80;0.63;;;15.30;79.70;;;;;;4955831;28;20412;-68
2022/11/26 08:56:22;;;;;;;2.90;1.07;;;16.30;77.40;;;;;;4955374;28;20203;-68
2022/11/26 08:58:47;;;;;;;1.63;1.50;;;17.00;73.10;;;;;;4955670;28;20196;-68
2022/11/26 09:01:19;;;;;;;0.60;0.60;;;17.40;68.90;;;;;;4955519;28;20188;-68
2022/11/26 09:03:49;;;;;;;3.43;1.20;;;17.80;67.70;;;;;;4955430;28;20616;-68
2022/11/26 09:06:16;;;;;;;1.33;1.30;;;18.10;65.60;;;;;;4955347;28;20911;-68
2022/11/26 09:11:26;;;;;;;1.30;1.20;;;17.90;63.30;;;;;;4955806;29;20412;-67
2022/11/26 09:13:52;;;;;;;0.63;0.63;;;17.90;61.30;;;;;;4955520;28;20394;-68
2022/11/26 09:16:19;;;;;;;1.10;1.10;;;18.10;60.60;;;;;;4955159;28;20805;-68
2022/11/26 09:18:44;;;;;;;0.40;0.40;;;18.20;60.50;;;;;;4955323;28;20576;-68
2022/11/26 09:21:10;;;;;;;2.13;1.43;;;17.90;60.10;;;;;;4958889;28;20410;-68
2022/11/26 09:23:35;;;;;;;0.50;0.40;;;17.40;60.80;;;;;;4959415;28;20244;-67
2022/11/26 09:26:01;;;;;;;0.50;0.50;;;17.30;63.00;;;;;;4957741;28;20239;-68
2022/11/26 09:28:27;;;;;;;0.30;0.30;;;18.00;62.70;;;;;;4959003;28;20173;-68
2022/11/26 09:31:00;;;;;;;0.30;0.30;;;19.00;59.80;;;;;;4959007;28;20619;-69
2022/11/26 09:33:27;;;;;;;0.50;0.50;;;19.90;58.50;;;;;;4959072;28;20408;-68
2022/11/26 09:35:52;;;;;;;0.30;0.30;;;20.60;55.90;;;;;;4958958;28;20462;-69
2022/11/26 09:38:18;;;;;;;0.60;0.60;;;21.10;55.50;;;;;;4958827;28;20413;-69
2022/11/26 09:40:58;;;;;;;0.70;0.70;;;21.60;54.40;;;;;;4958675;28;20192;-69
2022/11/26 09:43:52;;;;;;;0.40;0.40;;;22.20;53.60;;;;;;4959137;28;20200;-69
2022/11/26 09:46:27;;;;;;;0.40;0.40;;;22.70;52.90;;;;;;4958793;28;20427;-67
2022/11/26 09:48:56;;;;;;;0.50;0.50;;;22.70;50.60;;;;;;4958687;28;20405;-69
2022/11/26 09:51:22;;;;;;;0.60;0.57;;;22.70;50.30;;;;;;4958793;28;20756;-69
2022/11/26 09:53:50;;;;;;;0.30;0.30;;;22.90;49.30;;;;;;4958695;28;20408;-68
2022/11/26 09:56:21;;;;;;;0.60;0.60;;;22.90;49.60;;;;;;4958590;28;20194;-73
2022/11/26 09:58:56;;;;;;;0.80;0.80;;;22.90;50.60;;;;;;4957964;28;20491;-73
2022/11/26 10:01:22;;;;;;;0.50;0.50;;;22.90;50.60;;;;;;4958260;28;20439;-72
2022/11/26 10:03:49;;;;;;;0.50;0.40;;;23.00;48.90;;;;;;4957493;29;20460;-72
2022/11/26 10:06:24;;;;;;;0.30;0.30;;;22.90;48.10;;;;;;4957994;28;20502;-71
2022/11/26 10:09:27;;;;;;;0.30;0.30;;;23.10;47.80;;;;;;4958029;28;20463;-70
2022/11/26 10:11:58;;;;;;;0.80;0.50;;;23.20;49.40;;;;;;4957751;29;20459;-70
2022/11/26 10:14:30;;;;;;;0.40;0.40;;;23.30;49.30;;;;;;4958719;28;20402;-72
2022/11/26 10:17:22;;;;;;;0.50;0.50;;;23.30;49.30;;;;;;4958145;28;20536;-70
2022/11/26 10:20:22;;;;;;;0.60;0.60;;;23.30;49.40;;;;;;4958550;28;20743;-70
2022/11/26 10:22:51;;;;;;;0.37;0.37;;;23.20;48.30;;;;;;4957838;28;20492;-71
2022/11/26 10:25:21;;;;;;;0.40;0.40;;;23.00;48.30;;;;;;4958560;29;20412;-68
2022/11/26 10:27:48;;;;;;;0.50;0.50;;;22.80;48.30;;;;;;4958060;28;20500;-69
2022/11/26 10:30:21;;;;;;;0.30;0.30;;;22.50;49.90;;;;;;4957550;28;21033;-70
2022/11/26 10:32:48;;;;;;;0.40;0.40;;;22.30;50.60;;;;;;4956830;28;20814;-72
2022/11/26 10:35:22;;;;;;;0.40;0.40;;;21.30;51.30;;;;;;4957792;28;20409;-71
2022/11/26 10:37:48;;;;;;;0.67;0.60;;;20.40;52.80;;;;;;4956874;28;20437;-70
2022/11/26 10:40:30;;;;;;;0.30;0.30;;;19.50;53.70;;;;;;4956394;29;20778;-70
2022/11/26 10:43:07;;;;;;;0.50;0.50;;;18.70;55.70;;;;;;4957833;28;20199;-68
2022/11/26 10:45:46;;;;;;;0.40;0.40;;;18.20;57.10;;;;;;4957863;28;20415;-70
2022/11/26 10:48:28;;;;;;;0.40;0.40;;;17.90;58.50;;;;;;4958322;28;20411;-68
2022/11/26 10:50:57;;;;;;;0.40;0.40;;;17.60;58.40;;;;;;4956331;29;20416;-67
2022/11/26 10:53:24;;;;;;;2.33;0.67;;;17.00;59.80;;;;;;4957795;28;20406;-71
2022/11/26 10:55:52;;;;;;;0.40;0.40;;;16.50;61.00;;;;;;4957089;28;20945;-70
2022/11/26 10:58:40;;;;;;;0.83;0.50;;;15.90;63.20;;;;;;4958036;28;20472;-70
2022/11/26 11:01:06;;;;;;;0.40;0.40;;;15.20;64.40;;;;;;4957677;28;20417;-69
2022/11/26 11:03:38;;;;;;;0.47;0.40;;;14.70;66.50;;;;;;4957549;28;20484;-68
2022/11/26 11:06:19;;;;;;;0.40;0.40;;;14.40;69.00;;;;;;4956925;28;20449;-68
2022/11/26 11:08:46;;;;;;;0.40;0.40;;;13.90;70.30;;;;;;4957566;28;20453;-67
2022/11/26 11:11:19;;;;;;;0.70;0.50;;;13.40;76.00;;;;;;4957580;28;20402;-68
2022/11/26 11:13:47;;;;;;;0.30;0.30;;;12.60;79.00;;;;;;4957412;28;20410;-70
2022/11/26 11:16:34;;;;;;;0.30;0.30;;;12.30;84.30;;;;;;4956920;28;20515;-68
2022/11/26 11:19:03;;;;;;;0.40;0.40;;;12.10;89.50;;;;;;4946738;28;20437;-69
2022/11/26 11:21:35;;;;;;;0.30;0.30;;;12.00;89.80;;;;;;4957398;28;20898;-69
2022/11/26 11:24:17;;;;;;;0.40;0.40;;;12.00;85.40;;;;;;4956955;28;20879;-70
2022/11/26 11:26:52;;;;;;;0.30;0.30;;;11.70;81.70;;;;;;4957428;28;20459;-68
2022/11/26 11:29:36;;;;;;;0.37;0.37;;;11.70;83.50;;;;;;4956916;28;20905;-68
2022/11/26 11:32:05;;;;;;;0.40;0.40;;;11.70;85.80;;;;;;4956699;28;20405;-71
2022/11/26 11:34:32;;;;;;;0.30;0.30;;;11.70;87.10;;;;;;4956887;28;20409;-70
2022/11/26 11:37:20;;;;;;;0.30;0.30;;;11.60;86.70;;;;;;4956619;28;20433;-68
2022/11/26 11:40:03;;;;;;;0.30;0.30;;;11.50;87.40;;;;;;4956683;28;20460;-71
2022/11/26 11:42:31;;;;;;;0.30;0.30;;;11.50;89.30;;;;;;4956578;28;20470;-71
2022/11/26 11:44:58;;;;;;;6.28;1.63;;;11.30;89.20;;;;;;4956632;28;20412;-70
2022/11/26 11:47:36;;;;;;;0.30;0.30;;;11.10;90.20;;;;;;4956726;28;20186;-70
2022/11/26 11:50:24;;;;;;;0.40;0.40;;;11.00;90.60;;;;;;4956152;28;20249;-68
2022/11/26 11:53:20;;;;;;;0.30;0.30;;;11.00;90.30;;;;;;4957086;28;20188;-68
2022/11/26 11:55:50;;;;;;;0.30;0.30;;;11.00;91.10;;;;;;4956714;28;20412;-68
2022/11/26 11:58:30;;;;;;;1.15;1.15;;;10.90;91.20;;;;;;4956284;28;20542;-69
2022/11/26 12:01:27;;;;;;;0.40;0.40;;;10.80;90.50;;;;;;4956787;28;20177;-70
2022/11/26 12:04:16;;;;;;;1.95;0.95;;;10.70;90.20;;;;;;4956314;28;20260;-68
2022/11/26 12:06:48;;;;;;;0.30;0.30;;;10.60;88.50;;;;;;4956096;28;20260;-70
2022/11/26 12:09:55;;;;;;;0.30;0.30;;;10.60;90.60;;;;;;4956449;28;20162;-68
2022/11/26 12:12:27;;;;;;;0.40;0.40;;;10.40;91.10;;;;;;4923870;28;20535;-70
2022/11/26 12:15:20;;;;;;;0.40;0.40;;;10.30;91.10;;;;;;4956439;28;20196;-68
2022/11/26 12:17:51;;;;;;;2.58;0.82;;;10.30;91.00;;;;;;4956537;28;20718;-71
2022/11/26 12:20:43;;;;;;;0.60;0.60;;;10.40;91.70;;;;;;4955842;28;20178;-69
2022/11/26 12:23:14;;;;;;;0.40;0.40;;;10.50;92.20;;;;;;4956329;28;20201;-69
2022/11/26 12:25:39;;;;;;;0.60;0.60;;;10.50;91.10;;;;;;4956288;28;20612;-68
2022/11/26 12:28:24;;;;;;;0.50;0.50;;;10.60;90.90;;;;;;4955875;28;20185;-69
2022/11/26 12:31:08;;;;;;;1.08;0.88;;;10.60;91.60;;;;;;4955812;28;20256;-68
2022/11/26 12:33:56;;;;;;;0.40;0.40;;;10.40;89.90;;;;;;4956094;29;20650;-68
2022/11/26 12:36:25;;;;;;;1.40;1.30;;;10.20;90.90;;;;;;4956035;28;20212;-70
2022/11/26 12:38:59;;;;;;;0.40;0.40;;;10.20;91.80;;;;;;4955964;28;20595;-68
2022/11/26 12:41:42;;;;;;;0.40;0.40;;;10.20;92.30;;;;;;4955870;28;20176;-68
2022/11/26 12:44:29;;;;;;;0.30;0.30;;;10.20;93.50;;;;;;4955739;28;20193;-69
2022/11/26 12:47:20;;;;;;;0.40;0.40;;;10.00;92.00;;;;;;4955410;28;20201;-69
2022/11/26 12:49:55;;;;;;;0.40;0.40;;;9.80;93.10;;;;;;4955522;28;20623;-69
2022/11/26 12:52:42;;;;;;;0.50;0.50;;;9.60;95.50;;;;;;4955906;28;20259;-69
2022/11/26 12:55:17;;;;;;;0.30;0.30;;;9.60;95.20;;;;;;4953965;28;20180;-70
2022/11/26 12:58:00;;;;;;;0.50;0.50;;;9.70;95.20;;;;;;4955709;28;20209;-68
2022/11/26 13:00:29;;;;;;;0.50;0.50;;;9.70;95.90;;;;;;4955136;28;20173;-69
2022/11/26 13:02:55;;;;;;;0.30;0.30;;;9.50;95.00;;;;;;4955678;28;20204;-68
2022/11/26 13:05:24;;;;;;;0.40;0.40;;;9.50;95.20;;;;;;4955959;28;20177;-69
2022/11/26 13:08:20;;;;;;;3.33;0.95;;;9.60;95.80;;;;;;4953992;28;20962;-70
2022/11/26 13:10:58;;;;;;;0.40;0.40;;;9.70;95.40;;;;;;4954450;29;20210;-69